Terminal Aerodrome Forecast
Issued by NWS

Home | Current Version | Previous Version | Text Only | Print | Product List | Glossary On
Versions: 1 2 3 4 5 6 7 8 9 10 11 12 13 14
384
FTUS44 KLZK 032339
TAFADF
TAF
KADF 032339Z 0400/0424 VRB03KT P6SM SKC
      TEMPO 0408/0412 5SM BR
     FM041500 29008G16KT P6SM SCT050
     FM042200 33010G20KT P6SM SCT050=

USA.gov is the U.S. government's official web portal to all federal, state and local government web resources and services.